sensor_id;sensor_type;location;lat;lon;timestamp;temperature;humidity
78767;SHT31;68092;51.982;5.680;2023-04-01T00:02:18;13.0;73.7
78767;SHT31;68092;51.982;5.680;2023-04-01T00:04:48;13.0;73.6
78767;SHT31;68092;51.982;5.680;2023-04-01T00:07:18;13.0;73.7
78767;SHT31;68092;51.982;5.680;2023-04-01T00:09:48;13.0;73.8
78767;SHT31;68092;51.982;5.680;2023-04-01T00:12:18;13.0;73.9
78767;SHT31;68092;51.982;5.680;2023-04-01T00:14:47;13.0;73.8
78767;SHT31;68092;51.982;5.680;2023-04-01T00:17:17;13.0;73.8
78767;SHT31;68092;51.982;5.680;2023-04-01T00:19:47;13.0;73.7
78767;SHT31;68092;51.982;5.680;2023-04-01T00:22:17;13.0;73.8
78767;SHT31;68092;51.982;5.680;2023-04-01T00:24:46;13.0;73.9
78767;SHT31;68092;51.982;5.680;2023-04-01T00:27:16;13.0;73.7
78767;SHT31;68092;51.982;5.680;2023-04-01T00:29:47;13.0;73.7
78767;SHT31;68092;51.982;5.680;2023-04-01T00:32:16;13.0;73.6
78767;SHT31;68092;51.982;5.680;2023-04-01T00:34:49;13.0;73.5
78767;SHT31;68092;51.982;5.680;2023-04-01T00:37:20;13.0;73.4
78767;SHT31;68092;51.982;5.680;2023-04-01T00:39:50;13.0;73.4
78767;SHT31;68092;51.982;5.680;2023-04-01T00:42:20;13.1;73.6
78767;SHT31;68092;51.982;5.680;2023-04-01T00:44:50;13.1;73.6
78767;SHT31;68092;51.982;5.680;2023-04-01T00:47:22;13.1;73.5
78767;SHT31;68092;51.982;5.680;2023-04-01T00:49:54;13.1;73.6
78767;SHT31;68092;51.982;5.680;2023-04-01T00:52:27;13.1;73.4
78767;SHT31;68092;51.982;5.680;2023-04-01T00:54:59;13.1;73.4
78767;SHT31;68092;51.982;5.680;2023-04-01T00:57:32;13.1;73.4
78767;SHT31;68092;51.982;5.680;2023-04-01T01:00:10;13.1;73.7
78767;SHT31;68092;51.982;5.680;2023-04-01T01:02:43;13.1;73.8
78767;SHT31;68092;51.982;5.680;2023-04-01T01:05:15;13.1;73.8
78767;SHT31;68092;51.982;5.680;2023-04-01T01:07:54;13.1;73.9
78767;SHT31;68092;51.982;5.680;2023-04-01T01:10:30;13.1;74.0
78767;SHT31;68092;51.982;5.680;2023-04-01T01:13:06;13.1;73.9
78767;SHT31;68092;51.982;5.680;2023-04-01T01:15:44;13.1;73.7
78767;SHT31;68092;51.982;5.680;2023-04-01T01:18:22;13.1;73.8
78767;SHT31;68092;51.982;5.680;2023-04-01T01:22:30;13.1;73.7
78767;SHT31;68092;51.982;5.680;2023-04-01T01:25:49;13.2;73.3
78767;SHT31;68092;51.982;5.680;2023-04-01T01:28:36;13.2;73.1
78767;SHT31;68092;51.982;5.680;2023-04-01T01:31:19;13.2;73.1
78767;SHT31;68092;51.982;5.680;2023-04-01T01:33:57;13.2;72.7
78767;SHT31;68092;51.982;5.680;2023-04-01T01:36:32;13.2;72.5
78767;SHT31;68092;51.982;5.680;2023-04-01T01:39:06;13.2;72.0
78767;SHT31;68092;51.982;5.680;2023-04-01T01:41:39;13.2;71.7
78767;SHT31;68092;51.982;5.680;2023-04-01T01:44:14;13.2;71.8
78767;SHT31;68092;51.982;5.680;2023-04-01T01:46:45;13.2;71.6
78767;SHT31;68092;51.982;5.680;2023-04-01T01:49:17;13.2;71.9
78767;SHT31;68092;51.982;5.680;2023-04-01T01:51:48;13.2;71.5
78767;SHT31;68092;51.982;5.680;2023-04-01T01:54:20;13.2;71.4
78767;SHT31;68092;51.982;5.680;2023-04-01T01:56:59;13.2;71.5
78767;SHT31;68092;51.982;5.680;2023-04-01T01:59:33;13.2;71.2
78767;SHT31;68092;51.982;5.680;2023-04-01T02:02:06;13.2;71.5
78767;SHT31;68092;51.982;5.680;2023-04-01T02:04:40;13.2;71.0
78767;SHT31;68092;51.982;5.680;2023-04-01T02:07:16;13.2;70.7
78767;SHT31;68092;51.982;5.680;2023-04-01T02:09:49;13.1;71.2
78767;SHT31;68092;51.982;5.680;2023-04-01T02:12:22;13.1;71.3
78767;SHT31;68092;51.982;5.680;2023-04-01T02:14:57;13.1;71.2
78767;SHT31;68092;51.982;5.680;2023-04-01T02:17:30;13.1;71.4
78767;SHT31;68092;51.982;5.680;2023-04-01T02:20:03;13.1;71.8
78767;SHT31;68092;51.982;5.680;2023-04-01T02:22:40;13.1;71.9
78767;SHT31;68092;51.982;5.680;2023-04-01T02:25:13;13.1;71.8
78767;SHT31;68092;51.982;5.680;2023-04-01T02:27:45;13.1;72.0
78767;SHT31;68092;51.982;5.680;2023-04-01T02:30:17;13.1;71.6
78767;SHT31;68092;51.982;5.680;2023-04-01T02:32:50;13.1;71.6
78767;SHT31;68092;51.982;5.680;2023-04-01T02:35:22;13.1;71.7
78767;SHT31;68092;51.982;5.680;2023-04-01T02:37:54;13.1;71.9
78767;SHT31;68092;51.982;5.680;2023-04-01T02:40:24;13.0;72.0
78767;SHT31;68092;51.982;5.680;2023-04-01T02:42:53;13.0;72.1
78767;SHT31;68092;51.982;5.680;2023-04-01T02:45:23;13.0;72.1
78767;SHT31;68092;51.982;5.680;2023-04-01T02:47:53;13.0;72.3
78767;SHT31;68092;51.982;5.680;2023-04-01T02:50:22;13.0;72.5
78767;SHT31;68092;51.982;5.680;2023-04-01T02:52:52;12.9;72.3
78767;SHT31;68092;51.982;5.680;2023-04-01T02:55:22;12.9;72.1
78767;SHT31;68092;51.982;5.680;2023-04-01T02:57:51;12.9;72.3
78767;SHT31;68092;51.982;5.680;2023-04-01T03:00:21;12.9;72.2
78767;SHT31;68092;51.982;5.680;2023-04-01T03:02:53;12.9;72.4
78767;SHT31;68092;51.982;5.680;2023-04-01T03:05:24;12.9;72.4
78767;SHT31;68092;51.982;5.680;2023-04-01T03:07:55;12.9;72.3
78767;SHT31;68092;51.982;5.680;2023-04-01T03:10:25;12.9;72.2
78767;SHT31;68092;51.982;5.680;2023-04-01T03:12:55;12.8;72.5
78767;SHT31;68092;51.982;5.680;2023-04-01T03:15:24;12.8;72.1
78767;SHT31;68092;51.982;5.680;2023-04-01T03:17:54;12.8;72.4
78767;SHT31;68092;51.982;5.680;2023-04-01T03:20:23;12.8;72.3
78767;SHT31;68092;51.982;5.680;2023-04-01T03:22:53;12.8;72.6
78767;SHT31;68092;51.982;5.680;2023-04-01T03:25:24;12.8;72.6
78767;SHT31;68092;51.982;5.680;2023-04-01T03:27:56;12.8;72.2
78767;SHT31;68092;51.982;5.680;2023-04-01T03:30:26;12.7;72.7
78767;SHT31;68092;51.982;5.680;2023-04-01T03:32:58;12.7;72.5
78767;SHT31;68092;51.982;5.680;2023-04-01T03:35:28;12.7;72.6
78767;SHT31;68092;51.982;5.680;2023-04-01T03:37:57;12.7;72.5
78767;SHT31;68092;51.982;5.680;2023-04-01T03:40:27;12.7;72.6
78767;SHT31;68092;51.982;5.680;2023-04-01T03:43:02;12.7;72.7
78767;SHT31;68092;51.982;5.680;2023-04-01T03:45:35;12.7;72.6
78767;SHT31;68092;51.982;5.680;2023-04-01T03:48:05;12.7;72.6
78767;SHT31;68092;51.982;5.680;2023-04-01T03:50:36;12.7;72.6
78767;SHT31;68092;51.982;5.680;2023-04-01T03:53:05;12.7;72.6
78767;SHT31;68092;51.982;5.680;2023-04-01T03:55:36;12.7;72.6
78767;SHT31;68092;51.982;5.680;2023-04-01T03:58:09;12.7;72.8
78767;SHT31;68092;51.982;5.680;2023-04-01T04:00:39;12.7;72.8
78767;SHT31;68092;51.982;5.680;2023-04-01T04:03:08;12.7;72.8
78767;SHT31;68092;51.982;5.680;2023-04-01T04:05:48;12.7;72.6
78767;SHT31;68092;51.982;5.680;2023-04-01T04:08:18;12.6;72.9
78767;SHT31;68092;51.982;5.680;2023-04-01T04:10:58;12.6;73.1
78767;SHT31;68092;51.982;5.680;2023-04-01T04:13:28;12.7;72.9
78767;SHT31;68092;51.982;5.680;2023-04-01T04:15:58;12.7;72.9
78767;SHT31;68092;51.982;5.680;2023-04-01T04:18:29;12.7;73.0
78767;SHT31;68092;51.982;5.680;2023-04-01T04:20:58;12.7;73.2
78767;SHT31;68092;51.982;5.680;2023-04-01T04:23:28;12.7;73.2
78767;SHT31;68092;51.982;5.680;2023-04-01T04:26:03;12.7;73.2
78767;SHT31;68092;51.982;5.680;2023-04-01T04:28:33;12.7;73.1
78767;SHT31;68092;51.982;5.680;2023-04-01T04:31:06;12.7;73.2
78767;SHT31;68092;51.982;5.680;2023-04-01T04:33:38;12.7;73.3
78767;SHT31;68092;51.982;5.680;2023-04-01T04:36:10;12.7;73.3
78767;SHT31;68092;51.982;5.680;2023-04-01T04:38:39;12.7;73.5
78767;SHT31;68092;51.982;5.680;2023-04-01T04:41:11;12.6;73.5
78767;SHT31;68092;51.982;5.680;2023-04-01T04:43:41;12.6;73.6
78767;SHT31;68092;51.982;5.680;2023-04-01T04:46:11;12.6;73.6
78767;SHT31;68092;51.982;5.680;2023-04-01T04:48:41;12.7;73.7
78767;SHT31;68092;51.982;5.680;2023-04-01T04:51:14;12.7;73.6
78767;SHT31;68092;51.982;5.680;2023-04-01T04:53:47;12.7;73.6
78767;SHT31;68092;51.982;5.680;2023-04-01T04:56:20;12.7;73.7
78767;SHT31;68092;51.982;5.680;2023-04-01T04:58:51;12.7;73.7
78767;SHT31;68092;51.982;5.680;2023-04-01T05:01:21;12.7;73.7
78767;SHT31;68092;51.982;5.680;2023-04-01T05:03:51;12.7;73.7
78767;SHT31;68092;51.982;5.680;2023-04-01T05:06:22;12.7;73.7
78767;SHT31;68092;51.982;5.680;2023-04-01T05:08:53;12.7;73.7
78767;SHT31;68092;51.982;5.680;2023-04-01T05:11:23;12.7;73.7
78767;SHT31;68092;51.982;5.680;2023-04-01T05:13:53;12.7;73.9
78767;SHT31;68092;51.982;5.680;2023-04-01T05:16:24;12.7;74.0
78767;SHT31;68092;51.982;5.680;2023-04-01T05:18:54;12.8;74.0
78767;SHT31;68092;51.982;5.680;2023-04-01T05:21:23;12.8;73.9
78767;SHT31;68092;51.982;5.680;2023-04-01T05:23:53;12.8;73.9
78767;SHT31;68092;51.982;5.680;2023-04-01T05:26:23;12.8;73.9
78767;SHT31;68092;51.982;5.680;2023-04-01T05:28:52;12.9;73.9
78767;SHT31;68092;51.982;5.680;2023-04-01T05:31:22;12.9;73.8
78767;SHT31;68092;51.982;5.680;2023-04-01T05:33:53;12.9;73.8
78767;SHT31;68092;51.982;5.680;2023-04-01T05:36:22;13.0;73.7
78767;SHT31;68092;51.982;5.680;2023-04-01T05:38:54;13.0;73.5
78767;SHT31;68092;51.982;5.680;2023-04-01T05:41:24;13.1;73.5
78767;SHT31;68092;51.982;5.680;2023-04-01T05:43:54;13.1;73.5
78767;SHT31;68092;51.982;5.680;2023-04-01T05:46:24;13.1;73.3
78767;SHT31;68092;51.982;5.680;2023-04-01T05:48:54;13.2;73.3
78767;SHT31;68092;51.982;5.680;2023-04-01T05:51:23;13.2;73.2
78767;SHT31;68092;51.982;5.680;2023-04-01T05:53:55;13.2;73.1
78767;SHT31;68092;51.982;5.680;2023-04-01T05:56:25;13.3;72.9
78767;SHT31;68092;51.982;5.680;2023-04-01T05:58:54;13.3;73.0
78767;SHT31;68092;51.982;5.680;2023-04-01T06:01:24;13.3;72.8
78767;SHT31;68092;51.982;5.680;2023-04-01T06:03:53;13.4;72.8
78767;SHT31;68092;51.982;5.680;2023-04-01T06:06:27;13.4;72.5
78767;SHT31;68092;51.982;5.680;2023-04-01T06:09:01;13.4;72.6
78767;SHT31;68092;51.982;5.680;2023-04-01T06:11:42;13.5;72.5
78767;SHT31;68092;51.982;5.680;2023-04-01T06:14:27;13.5;72.4
78767;SHT31;68092;51.982;5.680;2023-04-01T06:17:12;13.5;72.4
78767;SHT31;68092;51.982;5.680;2023-04-01T06:19:53;13.6;72.3
78767;SHT31;68092;51.982;5.680;2023-04-01T06:26:14;13.6;72.1
78767;SHT31;68092;51.982;5.680;2023-04-01T06:29:15;13.6;72.2
78767;SHT31;68092;51.982;5.680;2023-04-01T06:32:00;13.7;72.1
78767;SHT31;68092;51.982;5.680;2023-04-01T06:35:00;13.7;72.1
78767;SHT31;68092;51.982;5.680;2023-04-01T06:37:52;13.7;72.1
78767;SHT31;68092;51.982;5.680;2023-04-01T06:40:42;13.7;72.2
78767;SHT31;68092;51.982;5.680;2023-04-01T06:43:25;13.7;72.2
78767;SHT31;68092;51.982;5.680;2023-04-01T06:46:06;13.8;72.2
78767;SHT31;68092;51.982;5.680;2023-04-01T06:48:57;13.8;72.0
78767;SHT31;68092;51.982;5.680;2023-04-01T06:51:36;13.8;71.9
78767;SHT31;68092;51.982;5.680;2023-04-01T06:54:11;13.8;72.0
78767;SHT31;68092;51.982;5.680;2023-04-01T06:56:45;13.8;71.8
78767;SHT31;68092;51.982;5.680;2023-04-01T06:59:20;13.8;71.6
78767;SHT31;68092;51.982;5.680;2023-04-01T07:01:57;13.9;72.0
78767;SHT31;68092;51.982;5.680;2023-04-01T07:04:30;13.9;71.6
78767;SHT31;68092;51.982;5.680;2023-04-01T07:07:08;13.9;71.7
78767;SHT31;68092;51.982;5.680;2023-04-01T07:09:45;13.9;71.6
78767;SHT31;68092;51.982;5.680;2023-04-01T07:12:23;13.9;71.8
78767;SHT31;68092;51.982;5.680;2023-04-01T07:14:59;13.9;71.9
78767;SHT31;68092;51.982;5.680;2023-04-01T07:17:33;13.9;71.9
78767;SHT31;68092;51.982;5.680;2023-04-01T07:22:54;13.9;71.8
78767;SHT31;68092;51.982;5.680;2023-04-01T07:25:30;13.9;72.0
78767;SHT31;68092;51.982;5.680;2023-04-01T07:28:04;13.9;72.0
78767;SHT31;68092;51.982;5.680;2023-04-01T07:30:45;13.9;72.0
78767;SHT31;68092;51.982;5.680;2023-04-01T07:33:26;13.9;71.8
78767;SHT31;68092;51.982;5.680;2023-04-01T07:36:03;13.9;71.9
78767;SHT31;68092;51.982;5.680;2023-04-01T07:38:47;14.0;72.2
78767;SHT31;68092;51.982;5.680;2023-04-01T07:41:26;14.0;71.8
78767;SHT31;68092;51.982;5.680;2023-04-01T07:44:10;14.0;72.4
78767;SHT31;68092;51.982;5.680;2023-04-01T07:47:05;14.0;72.1
78767;SHT31;68092;51.982;5.680;2023-04-01T07:49:49;14.0;72.2
78767;SHT31;68092;51.982;5.680;2023-04-01T07:52:31;14.0;72.2
78767;SHT31;68092;51.982;5.680;2023-04-01T07:55:12;14.0;71.8
78767;SHT31;68092;51.982;5.680;2023-04-01T07:57:51;14.1;71.9
78767;SHT31;68092;51.982;5.680;2023-04-01T08:00:27;14.1;71.5
78767;SHT31;68092;51.982;5.680;2023-04-01T08:03:24;14.1;71.8
78767;SHT31;68092;51.982;5.680;2023-04-01T08:06:01;14.2;71.5
78767;SHT31;68092;51.982;5.680;2023-04-01T08:08:46;14.2;71.2
78767;SHT31;68092;51.982;5.680;2023-04-01T08:11:34;14.2;71.1
78767;SHT31;68092;51.982;5.680;2023-04-01T08:14:15;14.2;70.7
78767;SHT31;68092;51.982;5.680;2023-04-01T08:16:54;14.2;71.2
78767;SHT31;68092;51.982;5.680;2023-04-01T08:19:41;14.2;71.4
78767;SHT31;68092;51.982;5.680;2023-04-01T08:22:14;14.3;71.7
78767;SHT31;68092;51.982;5.680;2023-04-01T08:24:51;14.3;71.6
78767;SHT31;68092;51.982;5.680;2023-04-01T08:27:31;14.3;71.4
78767;SHT31;68092;51.982;5.680;2023-04-01T08:30:16;14.3;71.2
78767;SHT31;68092;51.982;5.680;2023-04-01T08:32:53;14.3;71.1
78767;SHT31;68092;51.982;5.680;2023-04-01T08:35:29;14.4;71.1
78767;SHT31;68092;51.982;5.680;2023-04-01T08:38:09;14.4;71.1
78767;SHT31;68092;51.982;5.680;2023-04-01T08:41:01;14.4;71.2
78767;SHT31;68092;51.982;5.680;2023-04-01T08:44:03;14.4;71.2
78767;SHT31;68092;51.982;5.680;2023-04-01T08:47:16;14.4;71.1
78767;SHT31;68092;51.982;5.680;2023-04-01T08:51:10;14.5;71.0
78767;SHT31;68092;51.982;5.680;2023-04-01T08:54:33;14.5;71.1
78767;SHT31;68092;51.982;5.680;2023-04-01T08:57:17;14.5;70.8
78767;SHT31;68092;51.982;5.680;2023-04-01T08:59:57;14.6;71.0
78767;SHT31;68092;51.982;5.680;2023-04-01T09:02:47;14.6;70.9
78767;SHT31;68092;51.982;5.680;2023-04-01T09:05:38;14.6;70.5
78767;SHT31;68092;51.982;5.680;2023-04-01T09:08:25;14.6;70.1
78767;SHT31;68092;51.982;5.680;2023-04-01T09:11:06;14.6;70.2
78767;SHT31;68092;51.982;5.680;2023-04-01T09:13:51;14.6;70.0
78767;SHT31;68092;51.982;5.680;2023-04-01T09:18:06;14.7;70.1
78767;SHT31;68092;51.982;5.680;2023-04-01T09:21:17;14.7;70.4
78767;SHT31;68092;51.982;5.680;2023-04-01T09:24:05;14.7;70.8
78767;SHT31;68092;51.982;5.680;2023-04-01T09:26:59;14.7;70.3
78767;SHT31;68092;51.982;5.680;2023-04-01T09:29:49;14.7;71.1
78767;SHT31;68092;51.982;5.680;2023-04-01T09:32:38;14.8;71.7
78767;SHT31;68092;51.982;5.680;2023-04-01T09:35:23;14.8;71.6
78767;SHT31;68092;51.982;5.680;2023-04-01T09:38:09;14.8;71.1
78767;SHT31;68092;51.982;5.680;2023-04-01T09:40:52;14.8;71.8
78767;SHT31;68092;51.982;5.680;2023-04-01T09:43:26;14.9;71.3
78767;SHT31;68092;51.982;5.680;2023-04-01T09:46:20;14.9;71.5
78767;SHT31;68092;51.982;5.680;2023-04-01T09:50:24;15.0;71.4
78767;SHT31;68092;51.982;5.680;2023-04-01T09:53:10;15.0;71.3
78767;SHT31;68092;51.982;5.680;2023-04-01T09:56:04;15.1;69.2
78767;SHT31;68092;51.982;5.680;2023-04-01T09:59:04;15.1;70.2
78767;SHT31;68092;51.982;5.680;2023-04-01T10:01:45;15.2;71.1
78767;SHT31;68092;51.982;5.680;2023-04-01T10:05:09;15.2;70.8
78767;SHT31;68092;51.982;5.680;2023-04-01T10:08:12;15.3;71.5
78767;SHT31;68092;51.982;5.680;2023-04-01T10:11:18;15.3;72.2
78767;SHT31;68092;51.982;5.680;2023-04-01T10:16:04;15.4;72.0
78767;SHT31;68092;51.982;5.680;2023-04-01T10:19:27;15.6;72.2
78767;SHT31;68092;51.982;5.680;2023-04-01T10:22:56;15.7;73.9
78767;SHT31;68092;51.982;5.680;2023-04-01T10:27:11;15.8;73.3
78767;SHT31;68092;51.982;5.680;2023-04-01T10:31:38;16.1;71.2
78767;SHT31;68092;51.982;5.680;2023-04-01T10:36:17;16.3;69.3
78767;SHT31;68092;51.982;5.680;2023-04-01T10:39:11;16.6;68.8
78767;SHT31;68092;51.982;5.680;2023-04-01T10:42:14;16.7;67.2
78767;SHT31;68092;51.982;5.680;2023-04-01T10:46:56;16.9;65.5
78767;SHT31;68092;51.982;5.680;2023-04-01T10:49:44;17.0;66.1
78767;SHT31;68092;51.982;5.680;2023-04-01T10:52:47;17.1;64.7
78767;SHT31;68092;51.982;5.680;2023-04-01T11:05:01;17.4;63.7
78767;SHT31;68092;51.982;5.680;2023-04-01T11:08:18;17.5;64.3
78767;SHT31;68092;51.982;5.680;2023-04-01T11:11:27;17.6;64.1
78767;SHT31;68092;51.982;5.680;2023-04-01T11:14:23;17.7;60.3
78767;SHT31;68092;51.982;5.680;2023-04-01T11:19:32;17.7;60.2
78767;SHT31;68092;51.982;5.680;2023-04-01T11:27:12;17.7;61.3
78767;SHT31;68092;51.982;5.680;2023-04-01T11:30:00;17.7;62.0
78767;SHT31;68092;51.982;5.680;2023-04-01T11:32:47;17.8;60.6
78767;SHT31;68092;51.982;5.680;2023-04-01T11:35:38;17.8;60.8
78767;SHT31;68092;51.982;5.680;2023-04-01T11:38:29;17.7;62.0
78767;SHT31;68092;51.982;5.680;2023-04-01T11:41:15;17.7;63.2
78767;SHT31;68092;51.982;5.680;2023-04-01T11:44:03;17.7;61.6
78767;SHT31;68092;51.982;5.680;2023-04-01T11:46:42;17.7;60.1
78767;SHT31;68092;51.982;5.680;2023-04-01T11:49:26;17.7;61.6
78767;SHT31;68092;51.982;5.680;2023-04-01T11:52:17;17.7;60.3
78767;SHT31;68092;51.982;5.680;2023-04-01T11:55:03;17.7;60.4
78767;SHT31;68092;51.982;5.680;2023-04-01T12:00:55;17.7;60.4
78767;SHT31;68092;51.982;5.680;2023-04-01T12:04:11;17.6;59.7
78767;SHT31;68092;51.982;5.680;2023-04-01T12:06:50;17.5;59.9
78767;SHT31;68092;51.982;5.680;2023-04-01T12:09:33;17.5;61.9
78767;SHT31;68092;51.982;5.680;2023-04-01T12:12:15;17.4;61.8
78767;SHT31;68092;51.982;5.680;2023-04-01T12:15:00;17.3;62.3
78767;SHT31;68092;51.982;5.680;2023-04-01T12:17:39;17.3;63.0
78767;SHT31;68092;51.982;5.680;2023-04-01T12:20:30;17.3;62.8
78767;SHT31;68092;51.982;5.680;2023-04-01T12:23:17;17.2;60.9
78767;SHT31;68092;51.982;5.680;2023-04-01T12:26:12;17.2;62.3
78767;SHT31;68092;51.982;5.680;2023-04-01T12:28:59;17.2;62.0
78767;SHT31;68092;51.982;5.680;2023-04-01T12:31:45;17.2;62.0
78767;SHT31;68092;51.982;5.680;2023-04-01T12:34:36;17.1;63.2
78767;SHT31;68092;51.982;5.680;2023-04-01T12:37:18;17.1;63.3
78767;SHT31;68092;51.982;5.680;2023-04-01T12:40:14;17.1;62.4
78767;SHT31;68092;51.982;5.680;2023-04-01T12:42:59;17.0;62.8
78767;SHT31;68092;51.982;5.680;2023-04-01T12:45:33;17.0;62.7
78767;SHT31;68092;51.982;5.680;2023-04-01T12:49:44;17.0;63.0
78767;SHT31;68092;51.982;5.680;2023-04-01T12:52:28;17.0;62.8
78767;SHT31;68092;51.982;5.680;2023-04-01T12:55:39;16.9;63.8
78767;SHT31;68092;51.982;5.680;2023-04-01T12:59:48;16.9;63.0
78767;SHT31;68092;51.982;5.680;2023-04-01T13:02:38;16.9;64.0
78767;SHT31;68092;51.982;5.680;2023-04-01T13:05:33;16.9;64.2
78767;SHT31;68092;51.982;5.680;2023-04-01T13:10:09;16.9;65.0
78767;SHT31;68092;51.982;5.680;2023-04-01T13:13:07;16.9;64.8
78767;SHT31;68092;51.982;5.680;2023-04-01T13:15:46;16.9;65.4
78767;SHT31;68092;51.982;5.680;2023-04-01T13:18:30;16.9;64.2
78767;SHT31;68092;51.982;5.680;2023-04-01T13:21:13;16.9;64.0
78767;SHT31;68092;51.982;5.680;2023-04-01T13:23:58;16.9;63.5
78767;SHT31;68092;51.982;5.680;2023-04-01T13:26:40;16.9;63.0
78767;SHT31;68092;51.982;5.680;2023-04-01T13:29:16;16.9;63.6
78767;SHT31;68092;51.982;5.680;2023-04-01T13:32:09;16.8;63.7
78767;SHT31;68092;51.982;5.680;2023-04-01T13:35:03;16.8;63.6
78767;SHT31;68092;51.982;5.680;2023-04-01T13:37:51;16.8;63.4
78767;SHT31;68092;51.982;5.680;2023-04-01T13:40:31;16.7;63.7
78767;SHT31;68092;51.982;5.680;2023-04-01T13:43:21;16.7;64.5
78767;SHT31;68092;51.982;5.680;2023-04-01T13:46:08;16.6;64.4
78767;SHT31;68092;51.982;5.680;2023-04-01T13:50:51;16.6;64.9
78767;SHT31;68092;51.982;5.680;2023-04-01T13:53:46;16.6;64.6
78767;SHT31;68092;51.982;5.680;2023-04-01T13:56:35;16.6;65.2
78767;SHT31;68092;51.982;5.680;2023-04-01T13:59:29;16.5;65.3
78767;SHT31;68092;51.982;5.680;2023-04-01T14:06:16;16.5;65.3
78767;SHT31;68092;51.982;5.680;2023-04-01T14:09:11;16.5;65.8
78767;SHT31;68092;51.982;5.680;2023-04-01T14:11:56;16.5;64.9
78767;SHT31;68092;51.982;5.680;2023-04-01T14:14:40;16.5;65.5
78767;SHT31;68092;51.982;5.680;2023-04-01T14:17:31;16.5;65.8
78767;SHT31;68092;51.982;5.680;2023-04-01T14:20:32;16.5;65.5
78767;SHT31;68092;51.982;5.680;2023-04-01T14:23:38;16.5;64.9
78767;SHT31;68092;51.982;5.680;2023-04-01T14:26:25;16.5;65.0
78767;SHT31;68092;51.982;5.680;2023-04-01T14:29:14;16.5;65.5
78767;SHT31;68092;51.982;5.680;2023-04-01T14:32:02;16.5;65.9
78767;SHT31;68092;51.982;5.680;2023-04-01T14:34:48;16.5;65.5
78767;SHT31;68092;51.982;5.680;2023-04-01T14:38:31;16.5;65.4
78767;SHT31;68092;51.982;5.680;2023-04-01T14:41:19;16.5;65.5
78767;SHT31;68092;51.982;5.680;2023-04-01T14:44:05;16.5;65.7
78767;SHT31;68092;51.982;5.680;2023-04-01T14:49:49;16.5;65.4
78767;SHT31;68092;51.982;5.680;2023-04-01T14:52:28;16.5;65.1
78767;SHT31;68092;51.982;5.680;2023-04-01T14:55:20;16.5;65.3
78767;SHT31;68092;51.982;5.680;2023-04-01T14:58:07;16.5;65.4
78767;SHT31;68092;51.982;5.680;2023-04-01T15:00:48;16.4;65.2
78767;SHT31;68092;51.982;5.680;2023-04-01T15:03:25;16.4;65.2
78767;SHT31;68092;51.982;5.680;2023-04-01T15:06:14;16.4;65.2
78767;SHT31;68092;51.982;5.680;2023-04-01T15:08:53;16.4;65.6
78767;SHT31;68092;51.982;5.680;2023-04-01T15:11:35;16.4;66.0
78767;SHT31;68092;51.982;5.680;2023-04-01T15:14:31;16.4;65.5
78767;SHT31;68092;51.982;5.680;2023-04-01T15:17:27;16.4;65.5
78767;SHT31;68092;51.982;5.680;2023-04-01T15:20:13;16.4;65.3
78767;SHT31;68092;51.982;5.680;2023-04-01T15:23:15;16.4;65.8
78767;SHT31;68092;51.982;5.680;2023-04-01T15:26:16;16.4;65.6
78767;SHT31;68092;51.982;5.680;2023-04-01T15:28:57;16.4;65.9
78767;SHT31;68092;51.982;5.680;2023-04-01T15:31:36;16.4;66.1
78767;SHT31;68092;51.982;5.680;2023-04-01T15:34:28;16.4;65.9
78767;SHT31;68092;51.982;5.680;2023-04-01T15:37:12;16.4;65.2
78767;SHT31;68092;51.982;5.680;2023-04-01T15:39:54;16.4;64.3
78767;SHT31;68092;51.982;5.680;2023-04-01T15:42:35;16.3;64.9
78767;SHT31;68092;51.982;5.680;2023-04-01T15:45:23;16.3;65.1
78767;SHT31;68092;51.982;5.680;2023-04-01T15:48:01;16.3;64.5
78767;SHT31;68092;51.982;5.680;2023-04-01T15:50:48;16.3;65.1
78767;SHT31;68092;51.982;5.680;2023-04-01T15:53:27;16.2;65.2
78767;SHT31;68092;51.982;5.680;2023-04-01T15:56:27;16.1;65.1
78767;SHT31;68092;51.982;5.680;2023-04-01T15:59:13;16.1;65.1
78767;SHT31;68092;51.982;5.680;2023-04-01T16:01:53;16.0;65.4
78767;SHT31;68092;51.982;5.680;2023-04-01T16:04:50;16.0;65.0
78767;SHT31;68092;51.982;5.680;2023-04-01T16:07:54;16.0;65.3
78767;SHT31;68092;51.982;5.680;2023-04-01T16:10:36;15.9;64.9
78767;SHT31;68092;51.982;5.680;2023-04-01T16:13:28;15.9;65.8
78767;SHT31;68092;51.982;5.680;2023-04-01T16:16:11;15.8;65.5
78767;SHT31;68092;51.982;5.680;2023-04-01T16:23:22;15.7;65.8
78767;SHT31;68092;51.982;5.680;2023-04-01T16:26:03;15.7;65.9
78767;SHT31;68092;51.982;5.680;2023-04-01T16:28:45;15.6;65.3
78767;SHT31;68092;51.982;5.680;2023-04-01T16:31:34;15.6;65.8
78767;SHT31;68092;51.982;5.680;2023-04-01T16:34:10;15.6;65.2
78767;SHT31;68092;51.982;5.680;2023-04-01T16:36:49;15.5;65.6
78767;SHT31;68092;51.982;5.680;2023-04-01T16:39:28;15.5;65.6
78767;SHT31;68092;51.982;5.680;2023-04-01T16:42:12;15.5;65.9
78767;SHT31;68092;51.982;5.680;2023-04-01T16:45:02;15.4;65.5
78767;SHT31;68092;51.982;5.680;2023-04-01T16:47:38;15.4;66.2
78767;SHT31;68092;51.982;5.680;2023-04-01T16:50:17;15.4;65.5
78767;SHT31;68092;51.982;5.680;2023-04-01T16:53:14;15.4;66.6
78767;SHT31;68092;51.982;5.680;2023-04-01T16:55:49;15.3;65.8
78767;SHT31;68092;51.982;5.680;2023-04-01T16:58:26;15.3;65.9
78767;SHT31;68092;51.982;5.680;2023-04-01T17:01:05;15.3;66.3
78767;SHT31;68092;51.982;5.680;2023-04-01T17:03:41;15.3;66.0
78767;SHT31;68092;51.982;5.680;2023-04-01T17:06:23;15.2;65.7
78767;SHT31;68092;51.982;5.680;2023-04-01T17:09:11;15.2;66.3
78767;SHT31;68092;51.982;5.680;2023-04-01T17:11:50;15.2;66.2
78767;SHT31;68092;51.982;5.680;2023-04-01T17:14:30;15.2;65.8
78767;SHT31;68092;51.982;5.680;2023-04-01T17:17:20;15.1;65.4
78767;SHT31;68092;51.982;5.680;2023-04-01T17:21:13;15.1;64.9
78767;SHT31;68092;51.982;5.680;2023-04-01T17:23:52;15.1;65.2
78767;SHT31;68092;51.982;5.680;2023-04-01T17:26:33;15.0;64.7
78767;SHT31;68092;51.982;5.680;2023-04-01T17:29:15;15.0;65.1
78767;SHT31;68092;51.982;5.680;2023-04-01T17:31:57;14.9;65.2
78767;SHT31;68092;51.982;5.680;2023-04-01T17:34:50;14.9;65.6
78767;SHT31;68092;51.982;5.680;2023-04-01T17:37:39;14.9;65.3
78767;SHT31;68092;51.982;5.680;2023-04-01T17:40:30;14.9;65.2
78767;SHT31;68092;51.982;5.680;2023-04-01T17:43:14;14.8;65.3
78767;SHT31;68092;51.982;5.680;2023-04-01T17:45:52;14.8;65.0
78767;SHT31;68092;51.982;5.680;2023-04-01T17:48:35;14.8;64.7
78767;SHT31;68092;51.982;5.680;2023-04-01T17:51:16;14.8;64.7
78767;SHT31;68092;51.982;5.680;2023-04-01T17:53:58;14.8;64.5
78767;SHT31;68092;51.982;5.680;2023-04-01T17:56:44;14.7;64.7
78767;SHT31;68092;51.982;5.680;2023-04-01T17:59:26;14.7;65.0
78767;SHT31;68092;51.982;5.680;2023-04-01T18:02:11;14.6;65.3
78767;SHT31;68092;51.982;5.680;2023-04-01T18:05:00;14.6;65.5
78767;SHT31;68092;51.982;5.680;2023-04-01T18:07:55;14.5;65.3
78767;SHT31;68092;51.982;5.680;2023-04-01T18:10:38;14.5;64.8
78767;SHT31;68092;51.982;5.680;2023-04-01T18:14:48;14.5;65.2
78767;SHT31;68092;51.982;5.680;2023-04-01T18:17:24;14.4;64.8
78767;SHT31;68092;51.982;5.680;2023-04-01T18:20:11;14.4;64.8
78767;SHT31;68092;51.982;5.680;2023-04-01T18:22:47;14.3;65.1
78767;SHT31;68092;51.982;5.680;2023-04-01T18:25:26;14.3;64.8
78767;SHT31;68092;51.982;5.680;2023-04-01T18:28:16;14.2;64.9
78767;SHT31;68092;51.982;5.680;2023-04-01T18:30:55;14.2;64.8
78767;SHT31;68092;51.982;5.680;2023-04-01T18:33:42;14.1;65.4
78767;SHT31;68092;51.982;5.680;2023-04-01T18:36:19;14.1;65.2